South Lorain, Ohio
Current Conditions -  °F | °C
As of 4:53 AM on Friday 31 Oct 2014 (Local Time) from KLPR Reporting Station
Overcast Overcast  
Wind Chill: 40°   Ceiling: 4700
Heat Index: 43°   Visibility: 10mi
Dew Point: 37°   Wind: 5mph
Humidity: 80%   Direction: 230°SW
Pressure: 29.97"   Gusts: NA
Location:  41.4372°N, 82.1333°W
Report Text: KLPR 310853Z AUTO 23004KT 10SM OVC047 06/03 A2997 RMK AO2 SLP153 T00610028 57015 TSNO
Loading
Personal Weather Stations






























Interactive Weather Map
Tropical Storm Tracking
New forecast layout! Learn more

10-Day Weather Forecast

Advertisements
Track Severe Weather on mobile